Aleppo, Syria
Current Conditions -  °F | °C
As of 6:50 PM on Monday 24 Nov 2014 (Local Time) from LTDA Reporting Station
Scattered Clouds Scattered Clouds  
Wind Chill: 54°   Ceiling: Unl
Heat Index: 54°   Visibility: 6mi
Dew Point: 41°   Wind: 8mph
Humidity: 62%   Direction: 50°NE
Pressure: 30"   Gusts: NA
Location:  36.23°N, 37.17°E
Report Text: LTDA 241550Z 05007KT 9999 SCT035 12/05 Q1016
Loading
Personal Weather Stations






























Interactive Weather Map New forecast layout! Learn more

10-Day Weather Forecast

Advertisements
Track Severe Weather on mobile